Aeroporto :
LOGIN :

Iscrizione | Disclaimer

   EN    FR    IT 

 










Sommario :    VFR   VFR Marginale   IFR   IFR Intensivo   IFR Molto Intensivo
Visibilità : 
Base nubi : 
>= 8 km
>= 3000ft
5 / 8 km
1000 / 3000 ft
1500m / 5 km
500 / 1000 ft
800 / 1500m
200 / 500 ft
< 800m
< 200 ft
Simboli :   Temporali  Nebbia  Neve Forte  Precipitazioni Forti  Vento > 20 kt
SIGMETs :   Varie  Temporali  Ghiacco  Turbolenza  Onda orograficha  Ceneri Vulcaniche






- Altitudine del aeroporto : 147 ft
- Codice IATA : DUS


EDDL - Düsseldorf Int.

ULTIMO METAR :
  • 061920Z 19013KT 4500 -RADZ FEW005 BKN006 07/06 Q1006 BECMG 6000

METARs OBSOLETI :
  • 061850Z 20013KT 6000 -RADZ FEW005 BKN007 07/06 Q1006 TEMPO 3000 BR
  • 061820Z 20013KT 160V220 3000 -RADZ SCT005 BKN007 07/07 Q1006 BECMG 6000
  • 061750Z 20016KT 6000 -RADZ SCT008 BKN011 07/06 Q1006 BECMG BKN008
  • 061720Z 20016KT 6000 -RADZ FEW009 BKN012 07/06 Q1007 BECMG BKN008
  • 061650Z 19013KT 7000 -RADZ FEW009 BKN011 07/06 Q1007 BECMG BKN008

TAF TAF EDDL
Valido dal 06 a 18 ore il 08 a 00 ore UTC


061700Z 0618/0724 20015G25KT 9000 BKN011
PROB30
TEMPO 0618/0620 4000 -RADZ BKN008
PROB30
TEMPO 0620/0702 4000 SHRA BKN008 BKN030TCU
TEMPO 0702/0709 BKN008
BECMG 0703/0706 25012KT
BECMG 0709/0712 SCT012 BKN020



MetMap, La meteo Aeronautica in un colpo d'occhio ! - Copyright ORBIFLY Dicembre 2007 - Disclaimer

ORBIFLY MET'MAP TEAM :

Programmazione e sviluppo : Alexandra Zaïnal
Concezione : Baudouin d'Aumeries
Aiuto per la programmazione : Marc-Olivier Méhu
Supporto tecnico e logistico : Manuel Goepfert
Aiuto per la traduzione : Arnaldo La Scala

Contatto : metmap@orbifly.com




FONTI E CREDITI :

   NOAA